Flight Briefing for CMB860

Departure Arrival
Ramstein Air Force Base (ETAR)
Click to view FAA NOTAMS
KeflavĂ­k International Airport (BIKF)
Click to view FAA NOTAMS
Departure Time Arrival Time
N/A N/A
Aircraft Distance
B757-200SF 1305nm
Departure METAR Arrival METAR
ETAR 181548Z 27009G18KT 9999 BKN042 BKN055 08/00 A3011 RMK SLP208 $ BIKF 181530Z 18025KT 3000 -RA BR SCT003 BKN006 OVC010 07/07 Q0992
Suggested Route
RUDOT LNO UN852 SPY L602 BERGI UM90 LONAM N610 RATSU ALDAN ASRUN ASRUN1H


View recent IFR Routes data
Notes
USTRANSCOM CONTRACT FLIGHT

Charts and Procedures

Charts for ETAR
No chart available
Charts for BIKF
No chart available

Windy.com Weather Map